sensor_id;sensor_type;location;lat;lon;timestamp;P1;durP1;ratioP1;P2;durP2;ratioP2
16296;SDS011;8256;56.144;13.394;2023-05-10T00:01:36;0.68;;;0.10;;
16296;SDS011;8256;56.144;13.394;2023-05-10T00:04:22;0.70;;;0.20;;
16296;SDS011;8256;56.144;13.394;2023-05-10T00:07:08;0.40;;;0.10;;
16296;SDS011;8256;56.144;13.394;2023-05-10T00:09:53;0.77;;;0.27;;
16296;SDS011;8256;56.144;13.394;2023-05-10T00:12:39;0.40;;;0.10;;
16296;SDS011;8256;56.144;13.394;2023-05-10T00:15:24;0.70;;;0.10;;
16296;SDS011;8256;56.144;13.394;2023-05-10T00:18:10;1.05;;;0.60;;
16296;SDS011;8256;56.144;13.394;2023-05-10T00:20:56;0.85;;;0.20;;
16296;SDS011;8256;56.144;13.394;2023-05-10T00:23:42;0.40;;;0.10;;
16296;SDS011;8256;56.144;13.394;2023-05-10T00:26:27;0.50;;;0.10;;
16296;SDS011;8256;56.144;13.394;2023-05-10T00:29:13;0.50;;;0.10;;
16296;SDS011;8256;56.144;13.394;2023-05-10T00:31:58;0.80;;;0.10;;
16296;SDS011;8256;56.144;13.394;2023-05-10T00:34:44;0.40;;;0.10;;
16296;SDS011;8256;56.144;13.394;2023-05-10T00:37:30;0.40;;;0.10;;
16296;SDS011;8256;56.144;13.394;2023-05-10T00:40:15;0.40;;;0.10;;
16296;SDS011;8256;56.144;13.394;2023-05-10T00:43:01;2.97;;;0.25;;
16296;SDS011;8256;56.144;13.394;2023-05-10T00:45:46;0.55;;;0.10;;
16296;SDS011;8256;56.144;13.394;2023-05-10T00:48:32;0.65;;;0.25;;
16296;SDS011;8256;56.144;13.394;2023-05-10T00:51:18;0.50;;;0.10;;
16296;SDS011;8256;56.144;13.394;2023-05-10T00:54:04;0.85;;;0.17;;
16296;SDS011;8256;56.144;13.394;2023-05-10T00:56:51;0.75;;;0.30;;
16296;SDS011;8256;56.144;13.394;2023-05-10T00:59:36;0.45;;;0.10;;
16296;SDS011;8256;56.144;13.394;2023-05-10T01:02:22;0.50;;;0.10;;
16296;SDS011;8256;56.144;13.394;2023-05-10T01:05:07;0.73;;;0.23;;
16296;SDS011;8256;56.144;13.394;2023-05-10T01:07:53;0.45;;;0.10;;
16296;SDS011;8256;56.144;13.394;2023-05-10T01:10:39;1.52;;;0.57;;
16296;SDS011;8256;56.144;13.394;2023-05-10T01:16:13;0.40;;;0.10;;
16296;SDS011;8256;56.144;13.394;2023-05-10T01:18:59;0.43;;;0.10;;
16296;SDS011;8256;56.144;13.394;2023-05-10T01:33:46;0.57;;;0.10;;
16296;SDS011;8256;56.144;13.394;2023-05-10T01:36:43;0.73;;;0.35;;
16296;SDS011;8256;56.144;13.394;2023-05-10T01:39:34;0.40;;;0.10;;
16296;SDS011;8256;56.144;13.394;2023-05-10T01:42:21;0.60;;;0.10;;
16296;SDS011;8256;56.144;13.394;2023-05-10T01:45:18;0.85;;;0.43;;
16296;SDS011;8256;56.144;13.394;2023-05-10T01:48:10;0.60;;;0.13;;
16296;SDS011;8256;56.144;13.394;2023-05-10T01:50:56;0.40;;;0.10;;
16296;SDS011;8256;56.144;13.394;2023-05-10T01:53:44;0.77;;;0.32;;
16296;SDS011;8256;56.144;13.394;2023-05-10T01:56:30;0.60;;;0.10;;
16296;SDS011;8256;56.144;13.394;2023-05-10T01:59:18;0.52;;;0.10;;
16296;SDS011;8256;56.144;13.394;2023-05-10T02:02:04;0.40;;;0.10;;
16296;SDS011;8256;56.144;13.394;2023-05-10T02:04:50;0.50;;;0.15;;
16296;SDS011;8256;56.144;13.394;2023-05-10T02:07:36;0.40;;;0.10;;
16296;SDS011;8256;56.144;13.394;2023-05-10T02:10:22;0.60;;;0.10;;
16296;SDS011;8256;56.144;13.394;2023-05-10T02:13:08;0.88;;;0.20;;
16296;SDS011;8256;56.144;13.394;2023-05-10T02:15:55;0.53;;;0.10;;
16296;SDS011;8256;56.144;13.394;2023-05-10T02:18:42;1.45;;;0.43;;
16296;SDS011;8256;56.144;13.394;2023-05-10T02:21:28;0.50;;;0.17;;
16296;SDS011;8256;56.144;13.394;2023-05-10T02:24:14;0.40;;;0.10;;
16296;SDS011;8256;56.144;13.394;2023-05-10T02:27:00;0.80;;;0.20;;
16296;SDS011;8256;56.144;13.394;2023-05-10T02:29:47;0.30;;;0.00;;
16296;SDS011;8256;56.144;13.394;2023-05-10T02:32:33;0.63;;;0.20;;
16296;SDS011;8256;56.144;13.394;2023-05-10T02:35:19;0.68;;;0.10;;
16296;SDS011;8256;56.144;13.394;2023-05-10T02:38:05;0.85;;;0.30;;
16296;SDS011;8256;56.144;13.394;2023-05-10T02:40:52;0.68;;;0.17;;
16296;SDS011;8256;56.144;13.394;2023-05-10T02:43:39;0.90;;;0.40;;
16296;SDS011;8256;56.144;13.394;2023-05-10T02:46:25;0.45;;;0.10;;
16296;SDS011;8256;56.144;13.394;2023-05-10T02:49:10;0.55;;;0.10;;
16296;SDS011;8256;56.144;13.394;2023-05-10T02:51:57;0.73;;;0.15;;
16296;SDS011;8256;56.144;13.394;2023-05-10T02:54:44;0.40;;;0.10;;
16296;SDS011;8256;56.144;13.394;2023-05-10T02:57:34;0.57;;;0.17;;
16296;SDS011;8256;56.144;13.394;2023-05-10T03:00:19;0.65;;;0.20;;
16296;SDS011;8256;56.144;13.394;2023-05-10T03:03:05;0.43;;;0.10;;
16296;SDS011;8256;56.144;13.394;2023-05-10T03:05:50;0.85;;;0.20;;
16296;SDS011;8256;56.144;13.394;2023-05-10T03:08:39;0.30;;;0.00;;
16296;SDS011;8256;56.144;13.394;2023-05-10T03:11:43;0.60;;;0.13;;
16296;SDS011;8256;56.144;13.394;2023-05-10T03:23:21;0.85;;;0.30;;
16296;SDS011;8256;56.144;13.394;2023-05-10T03:26:07;0.30;;;0.00;;
16296;SDS011;8256;56.144;13.394;2023-05-10T03:28:53;0.73;;;0.10;;
16296;SDS011;8256;56.144;13.394;2023-05-10T03:31:39;0.60;;;0.20;;
16296;SDS011;8256;56.144;13.394;2023-05-10T03:34:25;0.43;;;0.10;;
16296;SDS011;8256;56.144;13.394;2023-05-10T03:37:11;2.05;;;0.95;;
16296;SDS011;8256;56.144;13.394;2023-05-10T03:40:00;0.60;;;0.10;;
16296;SDS011;8256;56.144;13.394;2023-05-10T03:42:49;0.60;;;0.20;;
16296;SDS011;8256;56.144;13.394;2023-05-10T03:45:37;0.40;;;0.10;;
16296;SDS011;8256;56.144;13.394;2023-05-10T03:49:03;0.80;;;0.38;;
16296;SDS011;8256;56.144;13.394;2023-05-10T03:51:48;1.10;;;0.35;;
16296;SDS011;8256;56.144;13.394;2023-05-10T03:54:34;0.43;;;0.10;;
16296;SDS011;8256;56.144;13.394;2023-05-10T03:57:20;0.70;;;0.15;;
16296;SDS011;8256;56.144;13.394;2023-05-10T04:00:06;0.38;;;0.10;;
16296;SDS011;8256;56.144;13.394;2023-05-10T04:02:52;1.27;;;0.60;;
16296;SDS011;8256;56.144;13.394;2023-05-10T04:05:41;0.43;;;0.13;;
16296;SDS011;8256;56.144;13.394;2023-05-10T04:08:27;0.50;;;0.10;;
16296;SDS011;8256;56.144;13.394;2023-05-10T04:11:16;3.47;;;0.63;;
16296;SDS011;8256;56.144;13.394;2023-05-10T04:14:22;1.17;;;0.30;;
16296;SDS011;8256;56.144;13.394;2023-05-10T04:17:11;0.35;;;0.05;;
16296;SDS011;8256;56.144;13.394;2023-05-10T04:26:53;0.70;;;0.20;;
16296;SDS011;8256;56.144;13.394;2023-05-10T04:29:39;0.88;;;0.35;;
16296;SDS011;8256;56.144;13.394;2023-05-10T04:32:24;0.68;;;0.20;;
16296;SDS011;8256;56.144;13.394;2023-05-10T04:35:10;0.85;;;0.25;;
16296;SDS011;8256;56.144;13.394;2023-05-10T04:37:56;1.10;;;0.17;;
16296;SDS011;8256;56.144;13.394;2023-05-10T04:40:41;0.50;;;0.10;;
16296;SDS011;8256;56.144;13.394;2023-05-10T04:43:27;0.55;;;0.10;;
16296;SDS011;8256;56.144;13.394;2023-05-10T04:46:12;0.50;;;0.10;;
16296;SDS011;8256;56.144;13.394;2023-05-10T04:48:58;0.98;;;0.32;;
16296;SDS011;8256;56.144;13.394;2023-05-10T04:51:43;0.80;;;0.10;;
16296;SDS011;8256;56.144;13.394;2023-05-10T04:54:29;1.30;;;0.40;;
16296;SDS011;8256;56.144;13.394;2023-05-10T04:57:15;0.60;;;0.10;;
16296;SDS011;8256;56.144;13.394;2023-05-10T05:00:00;0.82;;;0.20;;
16296;SDS011;8256;56.144;13.394;2023-05-10T05:02:46;1.67;;;0.77;;
16296;SDS011;8256;56.144;13.394;2023-05-10T05:05:31;0.70;;;0.17;;
16296;SDS011;8256;56.144;13.394;2023-05-10T05:08:17;0.77;;;0.15;;
16296;SDS011;8256;56.144;13.394;2023-05-10T05:11:03;1.17;;;0.40;;
16296;SDS011;8256;56.144;13.394;2023-05-10T05:13:48;1.33;;;0.50;;
16296;SDS011;8256;56.144;13.394;2023-05-10T05:16:34;1.08;;;0.30;;
16296;SDS011;8256;56.144;13.394;2023-05-10T05:19:19;1.07;;;0.23;;
16296;SDS011;8256;56.144;13.394;2023-05-10T05:22:06;1.88;;;0.88;;
16296;SDS011;8256;56.144;13.394;2023-05-10T05:24:52;1.05;;;0.25;;
16296;SDS011;8256;56.144;13.394;2023-05-10T05:27:37;1.67;;;0.52;;
16296;SDS011;8256;56.144;13.394;2023-05-10T05:30:23;0.70;;;0.20;;
16296;SDS011;8256;56.144;13.394;2023-05-10T05:33:08;1.20;;;0.20;;
16296;SDS011;8256;56.144;13.394;2023-05-10T05:35:54;0.90;;;0.20;;
16296;SDS011;8256;56.144;13.394;2023-05-10T05:38:39;1.27;;;0.40;;
16296;SDS011;8256;56.144;13.394;2023-05-10T05:41:25;1.30;;;0.32;;
16296;SDS011;8256;56.144;13.394;2023-05-10T05:44:11;1.10;;;0.32;;
16296;SDS011;8256;56.144;13.394;2023-05-10T05:46:56;2.07;;;0.57;;
16296;SDS011;8256;56.144;13.394;2023-05-10T05:49:42;1.30;;;0.30;;
16296;SDS011;8256;56.144;13.394;2023-05-10T05:52:30;1.48;;;0.55;;
16296;SDS011;8256;56.144;13.394;2023-05-10T05:55:16;1.65;;;0.50;;
16296;SDS011;8256;56.144;13.394;2023-05-10T05:58:02;3.30;;;0.80;;
16296;SDS011;8256;56.144;13.394;2023-05-10T06:00:48;1.17;;;0.30;;
16296;SDS011;8256;56.144;13.394;2023-05-10T06:03:33;3.05;;;0.63;;
16296;SDS011;8256;56.144;13.394;2023-05-10T06:06:19;2.58;;;0.60;;
16296;SDS011;8256;56.144;13.394;2023-05-10T06:09:05;2.70;;;0.85;;
16296;SDS011;8256;56.144;13.394;2023-05-10T06:11:50;3.15;;;0.80;;
16296;SDS011;8256;56.144;13.394;2023-05-10T06:14:36;1.70;;;0.57;;
16296;SDS011;8256;56.144;13.394;2023-05-10T06:17:21;1.20;;;0.32;;
16296;SDS011;8256;56.144;13.394;2023-05-10T06:20:07;1.60;;;0.32;;
16296;SDS011;8256;56.144;13.394;2023-05-10T06:22:53;2.10;;;0.88;;
16296;SDS011;8256;56.144;13.394;2023-05-10T06:25:39;1.85;;;0.80;;
16296;SDS011;8256;56.144;13.394;2023-05-10T06:28:24;2.30;;;0.70;;
16296;SDS011;8256;56.144;13.394;2023-05-10T06:31:10;2.25;;;0.60;;
16296;SDS011;8256;56.144;13.394;2023-05-10T06:33:57;2.67;;;0.93;;
16296;SDS011;8256;56.144;13.394;2023-05-10T06:36:43;1.05;;;0.25;;
16296;SDS011;8256;56.144;13.394;2023-05-10T06:39:28;2.17;;;0.57;;
16296;SDS011;8256;56.144;13.394;2023-05-10T06:42:14;1.17;;;0.33;;
16296;SDS011;8256;56.144;13.394;2023-05-10T06:45:00;3.45;;;1.05;;
16296;SDS011;8256;56.144;13.394;2023-05-10T06:47:45;2.03;;;0.50;;
16296;SDS011;8256;56.144;13.394;2023-05-10T06:50:31;3.28;;;0.80;;
16296;SDS011;8256;56.144;13.394;2023-05-10T06:53:17;1.60;;;0.60;;
16296;SDS011;8256;56.144;13.394;2023-05-10T06:56:03;1.63;;;0.33;;
16296;SDS011;8256;56.144;13.394;2023-05-10T06:58:49;2.40;;;0.93;;
16296;SDS011;8256;56.144;13.394;2023-05-10T07:01:34;3.42;;;0.80;;
16296;SDS011;8256;56.144;13.394;2023-05-10T07:04:20;2.95;;;0.63;;
16296;SDS011;8256;56.144;13.394;2023-05-10T07:07:06;1.67;;;0.60;;
16296;SDS011;8256;56.144;13.394;2023-05-10T07:09:51;1.80;;;0.60;;
16296;SDS011;8256;56.144;13.394;2023-05-10T07:12:37;1.98;;;0.57;;
16296;SDS011;8256;56.144;13.394;2023-05-10T07:15:23;2.03;;;0.65;;
16296;SDS011;8256;56.144;13.394;2023-05-10T07:18:09;1.63;;;0.60;;
16296;SDS011;8256;56.144;13.394;2023-05-10T07:20:54;2.15;;;0.82;;
16296;SDS011;8256;56.144;13.394;2023-05-10T07:23:40;7.33;;;1.13;;
16296;SDS011;8256;56.144;13.394;2023-05-10T07:26:26;1.77;;;0.50;;
16296;SDS011;8256;56.144;13.394;2023-05-10T07:29:11;1.70;;;0.38;;
16296;SDS011;8256;56.144;13.394;2023-05-10T07:31:57;3.03;;;1.25;;
16296;SDS011;8256;56.144;13.394;2023-05-10T07:34:42;3.28;;;0.90;;
16296;SDS011;8256;56.144;13.394;2023-05-10T07:37:28;2.80;;;0.70;;
16296;SDS011;8256;56.144;13.394;2023-05-10T07:40:14;2.75;;;0.60;;
16296;SDS011;8256;56.144;13.394;2023-05-10T07:42:59;2.83;;;1.20;;
16296;SDS011;8256;56.144;13.394;2023-05-10T07:45:48;2.30;;;0.57;;
16296;SDS011;8256;56.144;13.394;2023-05-10T07:48:33;3.05;;;1.10;;
16296;SDS011;8256;56.144;13.394;2023-05-10T07:51:19;4.27;;;0.60;;
16296;SDS011;8256;56.144;13.394;2023-05-10T07:54:05;2.95;;;1.00;;
16296;SDS011;8256;56.144;13.394;2023-05-10T07:56:51;2.05;;;0.63;;
16296;SDS011;8256;56.144;13.394;2023-05-10T07:59:37;2.20;;;0.55;;
16296;SDS011;8256;56.144;13.394;2023-05-10T08:02:22;2.35;;;0.70;;
16296;SDS011;8256;56.144;13.394;2023-05-10T08:05:08;1.73;;;0.40;;
16296;SDS011;8256;56.144;13.394;2023-05-10T08:07:53;3.22;;;1.08;;
16296;SDS011;8256;56.144;13.394;2023-05-10T08:10:39;2.17;;;0.70;;
16296;SDS011;8256;56.144;13.394;2023-05-10T08:13:24;2.35;;;0.60;;
16296;SDS011;8256;56.144;13.394;2023-05-10T08:16:10;7.07;;;0.80;;
16296;SDS011;8256;56.144;13.394;2023-05-10T08:18:56;1.83;;;0.50;;
16296;SDS011;8256;56.144;13.394;2023-05-10T08:21:41;2.10;;;0.65;;
16296;SDS011;8256;56.144;13.394;2023-05-10T08:24:27;2.50;;;1.05;;
16296;SDS011;8256;56.144;13.394;2023-05-10T08:27:13;2.65;;;0.95;;
16296;SDS011;8256;56.144;13.394;2023-05-10T08:29:58;2.22;;;0.68;;
16296;SDS011;8256;56.144;13.394;2023-05-10T08:32:44;2.87;;;0.90;;
16296;SDS011;8256;56.144;13.394;2023-05-10T08:35:30;2.03;;;0.60;;
16296;SDS011;8256;56.144;13.394;2023-05-10T08:38:15;2.65;;;0.80;;
16296;SDS011;8256;56.144;13.394;2023-05-10T08:41:01;2.47;;;0.77;;
16296;SDS011;8256;56.144;13.394;2023-05-10T08:43:47;3.50;;;0.70;;
16296;SDS011;8256;56.144;13.394;2023-05-10T08:46:33;2.53;;;0.80;;
16296;SDS011;8256;56.144;13.394;2023-05-10T08:49:20;2.65;;;0.82;;
16296;SDS011;8256;56.144;13.394;2023-05-10T08:52:07;2.63;;;0.85;;
16296;SDS011;8256;56.144;13.394;2023-05-10T08:54:53;2.92;;;0.93;;
16296;SDS011;8256;56.144;13.394;2023-05-10T08:57:38;3.25;;;0.85;;
16296;SDS011;8256;56.144;13.394;2023-05-10T09:00:24;2.73;;;0.70;;
16296;SDS011;8256;56.144;13.394;2023-05-10T09:03:10;2.13;;;0.57;;
16296;SDS011;8256;56.144;13.394;2023-05-10T09:05:56;3.95;;;1.25;;
16296;SDS011;8256;56.144;13.394;2023-05-10T09:08:42;2.50;;;0.85;;
16296;SDS011;8256;56.144;13.394;2023-05-10T09:11:28;3.15;;;0.90;;
16296;SDS011;8256;56.144;13.394;2023-05-10T09:14:15;3.43;;;0.80;;
16296;SDS011;8256;56.144;13.394;2023-05-10T09:17:01;2.90;;;1.05;;
16296;SDS011;8256;56.144;13.394;2023-05-10T09:19:46;2.75;;;1.02;;
16296;SDS011;8256;56.144;13.394;2023-05-10T09:22:32;2.55;;;1.00;;
16296;SDS011;8256;56.144;13.394;2023-05-10T09:25:18;2.45;;;0.80;;
16296;SDS011;8256;56.144;13.394;2023-05-10T09:28:08;2.40;;;0.70;;
16296;SDS011;8256;56.144;13.394;2023-05-10T09:30:56;3.42;;;0.80;;
16296;SDS011;8256;56.144;13.394;2023-05-10T09:33:45;4.20;;;1.75;;
16296;SDS011;8256;56.144;13.394;2023-05-10T09:36:31;2.88;;;0.98;;
16296;SDS011;8256;56.144;13.394;2023-05-10T09:39:17;3.05;;;0.80;;
16296;SDS011;8256;56.144;13.394;2023-05-10T09:42:04;1.93;;;0.57;;
16296;SDS011;8256;56.144;13.394;2023-05-10T09:44:50;2.65;;;0.80;;
16296;SDS011;8256;56.144;13.394;2023-05-10T09:47:35;2.67;;;0.80;;
16296;SDS011;8256;56.144;13.394;2023-05-10T09:50:21;2.67;;;0.80;;
16296;SDS011;8256;56.144;13.394;2023-05-10T09:53:07;2.28;;;0.65;;
16296;SDS011;8256;56.144;13.394;2023-05-10T09:55:53;8.17;;;1.23;;
16296;SDS011;8256;56.144;13.394;2023-05-10T09:58:38;3.30;;;1.17;;
16296;SDS011;8256;56.144;13.394;2023-05-10T10:01:25;2.50;;;0.70;;
16296;SDS011;8256;56.144;13.394;2023-05-10T10:04:11;2.58;;;0.73;;
16296;SDS011;8256;56.144;13.394;2023-05-10T10:07:01;2.28;;;0.70;;
16296;SDS011;8256;56.144;13.394;2023-05-10T10:09:46;2.53;;;0.83;;
16296;SDS011;8256;56.144;13.394;2023-05-10T10:12:32;2.95;;;0.70;;
16296;SDS011;8256;56.144;13.394;2023-05-10T10:15:18;3.00;;;1.10;;
16296;SDS011;8256;56.144;13.394;2023-05-10T10:18:04;2.58;;;1.05;;
16296;SDS011;8256;56.144;13.394;2023-05-10T10:20:50;2.60;;;0.80;;
16296;SDS011;8256;56.144;13.394;2023-05-10T10:23:36;2.60;;;0.93;;
16296;SDS011;8256;56.144;13.394;2023-05-10T10:26:21;2.90;;;1.00;;
16296;SDS011;8256;56.144;13.394;2023-05-10T10:29:16;2.42;;;0.80;;
16296;SDS011;8256;56.144;13.394;2023-05-10T10:32:19;2.72;;;0.93;;
16296;SDS011;8256;56.144;13.394;2023-05-10T10:35:06;5.85;;;1.08;;
16296;SDS011;8256;56.144;13.394;2023-05-10T10:37:52;2.20;;;0.70;;
16296;SDS011;8256;56.144;13.394;2023-05-10T10:40:37;2.30;;;0.70;;
16296;SDS011;8256;56.144;13.394;2023-05-10T10:43:24;2.55;;;0.80;;
16296;SDS011;8256;56.144;13.394;2023-05-10T10:49:09;3.35;;;1.25;;
16296;SDS011;8256;56.144;13.394;2023-05-10T10:52:15;2.83;;;0.97;;
16296;SDS011;8256;56.144;13.394;2023-05-10T10:55:07;2.53;;;0.80;;
16296;SDS011;8256;56.144;13.394;2023-05-10T10:57:56;3.05;;;1.00;;
16296;SDS011;8256;56.144;13.394;2023-05-10T11:00:49;3.33;;;1.25;;
16296;SDS011;8256;56.144;13.394;2023-05-10T11:03:35;2.25;;;0.70;;
16296;SDS011;8256;56.144;13.394;2023-05-10T11:06:30;2.90;;;1.00;;
16296;SDS011;8256;56.144;13.394;2023-05-10T11:09:19;3.10;;;0.98;;
16296;SDS011;8256;56.144;13.394;2023-05-10T11:12:08;2.40;;;0.82;;
16296;SDS011;8256;56.144;13.394;2023-05-10T11:14:56;8.13;;;1.08;;
16296;SDS011;8256;56.144;13.394;2023-05-10T11:17:42;3.47;;;0.95;;
16296;SDS011;8256;56.144;13.394;2023-05-10T11:20:28;2.57;;;0.83;;
16296;SDS011;8256;56.144;13.394;2023-05-10T11:23:18;2.88;;;1.02;;
16296;SDS011;8256;56.144;13.394;2023-05-10T11:26:07;2.30;;;0.75;;
16296;SDS011;8256;56.144;13.394;2023-05-10T11:28:54;2.92;;;0.93;;
16296;SDS011;8256;56.144;13.394;2023-05-10T11:31:44;3.08;;;1.10;;
16296;SDS011;8256;56.144;13.394;2023-05-10T11:34:32;2.43;;;0.83;;
16296;SDS011;8256;56.144;13.394;2023-05-10T11:37:18;4.70;;;1.30;;
16296;SDS011;8256;56.144;13.394;2023-05-10T11:40:04;2.50;;;0.80;;
16296;SDS011;8256;56.144;13.394;2023-05-10T11:42:50;3.25;;;1.00;;
16296;SDS011;8256;56.144;13.394;2023-05-10T11:45:36;2.50;;;0.80;;
16296;SDS011;8256;56.144;13.394;2023-05-10T11:48:22;2.77;;;1.07;;
16296;SDS011;8256;56.144;13.394;2023-05-10T11:51:09;5.43;;;1.48;;
16296;SDS011;8256;56.144;13.394;2023-05-10T11:53:56;2.60;;;1.00;;
16296;SDS011;8256;56.144;13.394;2023-05-10T11:56:41;3.10;;;1.10;;
16296;SDS011;8256;56.144;13.394;2023-05-10T11:59:27;3.17;;;1.05;;
16296;SDS011;8256;56.144;13.394;2023-05-10T12:02:13;5.23;;;1.60;;
16296;SDS011;8256;56.144;13.394;2023-05-10T12:04:59;2.63;;;0.90;;
16296;SDS011;8256;56.144;13.394;2023-05-10T12:07:45;3.10;;;1.10;;
16296;SDS011;8256;56.144;13.394;2023-05-10T12:10:33;3.00;;;1.25;;
16296;SDS011;8256;56.144;13.394;2023-05-10T12:13:20;3.03;;;1.10;;
16296;SDS011;8256;56.144;13.394;2023-05-10T12:16:16;3.53;;;1.50;;
16296;SDS011;8256;56.144;13.394;2023-05-10T12:19:02;3.00;;;1.05;;
16296;SDS011;8256;56.144;13.394;2023-05-10T12:21:47;5.82;;;1.42;;
16296;SDS011;8256;56.144;13.394;2023-05-10T12:24:36;5.05;;;1.33;;
16296;SDS011;8256;56.144;13.394;2023-05-10T12:27:23;4.38;;;1.67;;
16296;SDS011;8256;56.144;13.394;2023-05-10T12:30:09;3.60;;;1.40;;
16296;SDS011;8256;56.144;13.394;2023-05-10T12:33:11;3.30;;;1.45;;
16296;SDS011;8256;56.144;13.394;2023-05-10T12:35:58;3.67;;;1.40;;
16296;SDS011;8256;56.144;13.394;2023-05-10T12:38:44;2.55;;;0.90;;
16296;SDS011;8256;56.144;13.394;2023-05-10T12:41:33;2.95;;;1.30;;
16296;SDS011;8256;56.144;13.394;2023-05-10T12:44:18;3.53;;;1.40;;
16296;SDS011;8256;56.144;13.394;2023-05-10T12:47:04;3.17;;;1.30;;
16296;SDS011;8256;56.144;13.394;2023-05-10T12:49:49;3.70;;;1.50;;
16296;SDS011;8256;56.144;13.394;2023-05-10T12:52:36;3.47;;;1.50;;
16296;SDS011;8256;56.144;13.394;2023-05-10T12:55:22;3.90;;;2.13;;
16296;SDS011;8256;56.144;13.394;2023-05-10T12:58:08;3.90;;;2.63;;
16296;SDS011;8256;56.144;13.394;2023-05-10T13:00:53;4.43;;;2.97;;
16296;SDS011;8256;56.144;13.394;2023-05-10T13:03:39;4.88;;;3.35;;
16296;SDS011;8256;56.144;13.394;2023-05-10T13:06:25;7.22;;;4.25;;
16296;SDS011;8256;56.144;13.394;2023-05-10T13:09:10;5.95;;;4.35;;
16296;SDS011;8256;56.144;13.394;2023-05-10T13:11:56;6.10;;;5.50;;
16296;SDS011;8256;56.144;13.394;2023-05-10T13:14:42;6.25;;;5.70;;
16296;SDS011;8256;56.144;13.394;2023-05-10T13:17:27;6.90;;;6.30;;
16296;SDS011;8256;56.144;13.394;2023-05-10T13:20:13;9.90;;;6.80;;
16296;SDS011;8256;56.144;13.394;2023-05-10T13:22:58;7.00;;;6.40;;
16296;SDS011;8256;56.144;13.394;2023-05-10T13:25:44;6.73;;;6.13;;
16296;SDS011;8256;56.144;13.394;2023-05-10T13:28:30;6.60;;;6.00;;
16296;SDS011;8256;56.144;13.394;2023-05-10T13:31:15;6.05;;;5.55;;
16296;SDS011;8256;56.144;13.394;2023-05-10T13:34:01;7.18;;;6.57;;
16296;SDS011;8256;56.144;13.394;2023-05-10T13:36:47;7.28;;;6.65;;
16296;SDS011;8256;56.144;13.394;2023-05-10T13:39:33;7.60;;;7.00;;
16296;SDS011;8256;56.144;13.394;2023-05-10T13:42:19;8.35;;;7.53;;
16296;SDS011;8256;56.144;13.394;2023-05-10T13:45:05;7.63;;;7.03;;
16296;SDS011;8256;56.144;13.394;2023-05-10T13:47:51;8.65;;;7.95;;
16296;SDS011;8256;56.144;13.394;2023-05-10T13:50:37;9.57;;;8.77;;
16296;SDS011;8256;56.144;13.394;2023-05-10T13:53:23;9.77;;;9.07;;
16296;SDS011;8256;56.144;13.394;2023-05-10T13:56:09;8.73;;;8.07;;
16296;SDS011;8256;56.144;13.394;2023-05-10T13:58:55;10.68;;;9.88;;
16296;SDS011;8256;56.144;13.394;2023-05-10T14:01:42;9.75;;;9.05;;
16296;SDS011;8256;56.144;13.394;2023-05-10T14:04:30;10.95;;;10.05;;
16296;SDS011;8256;56.144;13.394;2023-05-10T14:07:16;10.50;;;9.80;;
16296;SDS011;8256;56.144;13.394;2023-05-10T14:10:03;11.43;;;10.18;;
16296;SDS011;8256;56.144;13.394;2023-05-10T14:12:49;10.65;;;9.85;;
16296;SDS011;8256;56.144;13.394;2023-05-10T14:15:34;9.93;;;9.23;;
16296;SDS011;8256;56.144;13.394;2023-05-10T14:18:20;10.02;;;9.32;;
16296;SDS011;8256;56.144;13.394;2023-05-10T14:21:06;9.53;;;8.23;;
16296;SDS011;8256;56.144;13.394;2023-05-10T14:23:51;9.68;;;8.98;;
16296;SDS011;8256;56.144;13.394;2023-05-10T14:26:37;9.63;;;8.93;;
16296;SDS011;8256;56.144;13.394;2023-05-10T14:29:23;9.05;;;8.35;;
16296;SDS011;8256;56.144;13.394;2023-05-10T14:32:08;9.20;;;8.45;;
16296;SDS011;8256;56.144;13.394;2023-05-10T14:34:54;8.97;;;8.27;;
16296;SDS011;8256;56.144;13.394;2023-05-10T14:37:40;9.85;;;9.15;;
16296;SDS011;8256;56.144;13.394;2023-05-10T14:40:25;10.30;;;9.60;;
16296;SDS011;8256;56.144;13.394;2023-05-10T14:43:11;11.23;;;10.32;;
16296;SDS011;8256;56.144;13.394;2023-05-10T14:45:57;11.00;;;10.20;;
16296;SDS011;8256;56.144;13.394;2023-05-10T14:48:43;10.53;;;9.73;;
16296;SDS011;8256;56.144;13.394;2023-05-10T14:51:28;11.27;;;10.48;;
16296;SDS011;8256;56.144;13.394;2023-05-10T14:54:14;10.30;;;9.57;;
16296;SDS011;8256;56.144;13.394;2023-05-10T14:56:59;10.95;;;10.25;;
16296;SDS011;8256;56.144;13.394;2023-05-10T14:59:45;10.75;;;9.95;;
16296;SDS011;8256;56.144;13.394;2023-05-10T15:02:31;10.60;;;9.90;;
16296;SDS011;8256;56.144;13.394;2023-05-10T15:05:17;10.13;;;9.43;;
16296;SDS011;8256;56.144;13.394;2023-05-10T15:08:02;9.85;;;9.05;;
16296;SDS011;8256;56.144;13.394;2023-05-10T15:10:48;11.88;;;11.00;;
16296;SDS011;8256;56.144;13.394;2023-05-10T15:13:34;11.52;;;10.73;;
16296;SDS011;8256;56.144;13.394;2023-05-10T15:16:19;10.37;;;9.67;;
16296;SDS011;8256;56.144;13.394;2023-05-10T15:19:05;10.45;;;9.75;;
16296;SDS011;8256;56.144;13.394;2023-05-10T15:21:50;10.20;;;9.50;;
16296;SDS011;8256;56.144;13.394;2023-05-10T15:24:36;10.02;;;9.23;;
16296;SDS011;8256;56.144;13.394;2023-05-10T15:27:21;10.32;;;9.63;;
16296;SDS011;8256;56.144;13.394;2023-05-10T15:30:07;9.90;;;8.45;;
16296;SDS011;8256;56.144;13.394;2023-05-10T15:32:53;11.38;;;10.57;;
16296;SDS011;8256;56.144;13.394;2023-05-10T15:35:39;9.25;;;8.55;;
16296;SDS011;8256;56.144;13.394;2023-05-10T15:38:24;9.90;;;9.20;;
16296;SDS011;8256;56.144;13.394;2023-05-10T15:41:11;9.98;;;9.18;;
16296;SDS011;8256;56.144;13.394;2023-05-10T15:43:57;9.43;;;8.73;;
16296;SDS011;8256;56.144;13.394;2023-05-10T15:46:44;10.55;;;9.80;;
16296;SDS011;8256;56.144;13.394;2023-05-10T15:49:30;9.93;;;9.23;;
16296;SDS011;8256;56.144;13.394;2023-05-10T15:52:16;10.65;;;9.85;;
16296;SDS011;8256;56.144;13.394;2023-05-10T15:55:03;11.45;;;9.13;;
16296;SDS011;8256;56.144;13.394;2023-05-10T15:57:49;10.00;;;9.20;;
16296;SDS011;8256;56.144;13.394;2023-05-10T16:00:35;9.15;;;8.45;;
16296;SDS011;8256;56.144;13.394;2023-05-10T16:03:21;8.88;;;8.18;;
16296;SDS011;8256;56.144;13.394;2023-05-10T16:06:06;8.90;;;8.13;;
16296;SDS011;8256;56.144;13.394;2023-05-10T16:08:52;8.07;;;7.38;;
16296;SDS011;8256;56.144;13.394;2023-05-10T16:11:38;9.00;;;8.30;;
16296;SDS011;8256;56.144;13.394;2023-05-10T16:14:23;8.05;;;7.45;;
16296;SDS011;8256;56.144;13.394;2023-05-10T16:17:09;7.38;;;6.78;;
16296;SDS011;8256;56.144;13.394;2023-05-10T16:19:54;8.60;;;7.55;;
16296;SDS011;8256;56.144;13.394;2023-05-10T16:22:40;7.28;;;6.68;;
16296;SDS011;8256;56.144;13.394;2023-05-10T16:25:26;8.10;;;7.50;;
16296;SDS011;8256;56.144;13.394;2023-05-10T16:28:12;8.27;;;7.53;;
16296;SDS011;8256;56.144;13.394;2023-05-10T16:30:58;6.93;;;6.32;;
16296;SDS011;8256;56.144;13.394;2023-05-10T16:33:43;7.15;;;6.45;;
16296;SDS011;8256;56.144;13.394;2023-05-10T16:36:29;7.60;;;7.00;;
16296;SDS011;8256;56.144;13.394;2023-05-10T16:39:15;7.23;;;6.63;;
16296;SDS011;8256;56.144;13.394;2023-05-10T16:42:01;7.38;;;6.68;;
16296;SDS011;8256;56.144;13.394;2023-05-10T16:44:46;7.25;;;6.65;;
16296;SDS011;8256;56.144;13.394;2023-05-10T16:47:33;6.85;;;6.10;;
16296;SDS011;8256;56.144;13.394;2023-05-10T16:50:18;7.53;;;6.82;;
16296;SDS011;8256;56.144;13.394;2023-05-10T16:53:04;8.27;;;7.60;;
16296;SDS011;8256;56.144;13.394;2023-05-10T16:55:50;8.35;;;7.55;;
16296;SDS011;8256;56.144;13.394;2023-05-10T16:58:35;8.80;;;7.10;;
16296;SDS011;8256;56.144;13.394;2023-05-10T17:01:21;7.65;;;7.05;;
16296;SDS011;8256;56.144;13.394;2023-05-10T17:04:06;7.93;;;7.32;;
16296;SDS011;8256;56.144;13.394;2023-05-10T17:06:52;7.80;;;7.10;;
16296;SDS011;8256;56.144;13.394;2023-05-10T17:09:38;6.57;;;6.07;;
16296;SDS011;8256;56.144;13.394;2023-05-10T17:12:24;6.13;;;5.55;;
16296;SDS011;8256;56.144;13.394;2023-05-10T17:15:10;6.43;;;5.82;;